Decoded Metar for EVRA (RIGA AIRPORT in LATVIA) (IATA:N/A) | Meteo·Mobile Aviation Weather
aviador You're here:

EVRA Decoded Metar

RIGA AIRPORT in LATVIA
Report Time2019-08-18 14:50:00
UTC Time2019-08-18 14:54:01
Flight Rules vfr VFR
Wind170° at 08 kt
W.Decomp.*RWY 18: 7.7 kt HW 2.3 kt LCW
Visibility9999 m
Phenomena:N/A
Clouds:N/A
Expected CloudBase > 4,800 ft AGL from Temp-Dew spread
CeilingNone
Temp26°C (ISA +11)
Dew Point14°C (48% RH)
AAT24.4°C
QNH1009 hPa
Density Alt1,660 ft
Elevation33 ft
Report Wrong Elevation
Raw Report
METAR EVRA 181450Z 17008KT 130V190 CAVOK 26/14 Q1009 NOSIG=

Extra information for EVRA:More info

Metar Taf Metar & Taf Last 4 Metars F.Rules Stats Wind Profile Meteogram Temp Stats Airport Information Weather charts Add Link Nearby VenuesMetar ALERT Operation Metar Decoded Social comments